Lac La Biche, Alberta

Conditions des dernières 24 heures

Ce tableau est un sommaire des conditions météo couvrant les dernières 24 heures. Ce sommaire inclut les paramètres suivants: température, humidité, point de rosée, direction et vitesse du vent, pression barométrique, facteur de refroidissement éolien ou indice humidex.
Date / Heure
(HAR)
Conditions Temp (°C) Humidite (%) Point de rose (°C) Vent (km/h) Pression (kPa) Vis (km) Refr. éolien
23 avril 2014
3:00 N.D. 9 60 1 ESE 18 rafale 29 100,1 N.D. *
2:00 N.D. 9 56 1 E 16 rafale 28 100,1 N.D. *
1:00 N.D. 10 53 1 ESE 21 rafale 39 100,2 N.D. *
0:00 N.D. 11 47 0 E 19 rafale 27 100,2 N.D. *
22 avril 2014
23:00 N.D. 11 41 -2 E 21 rafale 31 100,3 N.D. *
22:00 N.D. 11 41 -2 E 19 rafale 33 100,4 N.D. *
21:00 N.D. 11 39 -2 E 21 rafale 32 100,4 N.D. *
20:00 N.D. 12 37 -2 ESE 20 rafale 36 100,4 N.D. *
19:00 N.D. 13 35 -2 E 19 rafale 31 100,5 N.D. *
18:00 N.D. 13 34 -2 E 18 100,5 N.D. *
17:00 N.D. 14 32 -3 E 31 rafale 43 100,5 N.D. *
16:00 N.D. 15 30 -2 E 28 rafale 38 100,6 N.D. *
15:00 N.D. 16   27 -3 ESE 20 rafale 31 100,7 N.D. *
14:00 N.D. 16   29 -2 ESE 20 rafale 32 100,7 N.D. *
13:00 N.D. 15 30 -2 E 20 100,8 N.D. *
12:00 N.D. 13 39 -1 E 20 rafale 30 100,8 N.D. *
11:00 N.D. 11 45 0 E 12 100,9 N.D. *
10:00 N.D. 9 51 0 ESE 14 101,0 N.D. *
9:00 N.D. 6 63 -1 ENE 10 101,1 N.D. *
8:00 N.D. 4 70 -1 NE 11 101,1 N.D. *
7:00 N.D. 2 77 -2 NE 11 101,1 N.D. *
6:00 N.D. -2   82 -5 NE 3 101,2 N.D. -4
5:00 N.D. 0 78 -4 NE 7 101,2 N.D. -3
4:00 N.D. -1 78 -4 calme 101,2 N.D. *
3:00 N.D. -1 78 -5 NE 5 101,3 N.D. -3
N.D.
non disponible
 ↑ 
température la plus haute
 ↓ 
température la plus basse
*
Valeur non significative.

Si vous désirez plus de données historiques sur les conditions météo, s.v.p. visitez Données climatologiques en ligne.